Time;durP1;ratioP1;P1;durP2;ratioP2;P2;SDS_P1;SDS_P2;PMS_P1;PMS_P2;Temp;Humidity;BMP_temperature;BMP_pressure;BME280_temperature;BME280_humidity;BME280_pressure;Samples;Min_cycle;Max_cycle;Signal;HPM_P1;HPM_P2
2023/11/01 09:49:08;;;;;;;2.85;0.80;;;;;;;;;;4245308;27;20372;-81
2023/11/01 09:51:10;;;;;;;2.42;0.80;;;;;;;;;;4244806;27;20051;-80
2023/11/01 09:53:13;;;;;;;2.42;0.68;;;;;;;;;;4242801;28;20047;-79
2023/11/01 09:55:15;;;;;;;2.20;0.73;;;;;;;;;;4244609;27;20434;-81
2023/11/01 09:57:19;;;;;;;3.03;1.00;;;;;;;;;;4244757;27;20047;-80
2023/11/01 09:59:22;;;;;;;2.83;0.90;;;;;;;;;;4244407;28;20048;-79
2023/11/01 10:01:24;;;;;;;2.72;0.70;;;;;;;;;;4244611;27;20052;-79
2023/11/01 10:03:27;;;;;;;2.30;0.63;;;;;;;;;;4242333;27;20058;-80
2023/11/01 10:05:30;;;;;;;2.63;0.77;;;;;;;;;;4244349;27;20051;-80
2023/11/01 10:07:33;;;;;;;1.13;0.52;;;;;;;;;;4243677;27;20098;-80
2023/11/01 10:09:36;;;;;;;2.03;0.68;;;;;;;;;;4244755;27;20076;-81
2023/11/01 10:11:38;;;;;;;2.85;0.80;;;;;;;;;;4244358;27;20453;-80
2023/11/01 10:13:41;;;;;;;1.95;0.70;;;;;;;;;;4238260;28;20040;-92
2023/11/01 10:15:43;;;;;;;3.47;0.80;;;;;;;;;;4248694;27;20121;-93
2023/11/01 10:17:45;;;;;;;2.80;0.70;;;;;;;;;;4247964;27;20059;-91
2023/11/01 10:19:48;;;;;;;2.78;0.77;;;;;;;;;;4249409;28;20104;-92
2023/11/01 10:21:51;;;;;;;1.92;0.60;;;;;;;;;;4245871;28;20044;-92
2023/11/01 10:23:57;;;;;;;1.95;0.70;;;;;;;;;;4248567;28;20551;-93
2023/11/01 10:25:58;;;;;;;2.58;0.70;;;;;;;;;;4231477;28;20047;-94
2023/11/01 10:28:01;;;;;;;2.70;0.95;;;;;;;;;;4235546;27;20040;-92
2023/11/01 10:30:04;;;;;;;4.18;1.00;;;;;;;;;;4245596;27;20143;-92
2023/11/01 10:32:10;;;;;;;2.63;0.50;;;;;;;;;;4245622;27;20062;-92
2023/11/01 10:34:12;;;;;;;3.10;0.82;;;;;;;;;;4231597;28;20126;-91
2023/11/01 10:36:14;;;;;;;2.85;0.98;;;;;;;;;;4234068;28;20056;-94
2023/11/01 10:38:17;;;;;;;1.52;0.65;;;;;;;;;;4249577;28;20043;-92
2023/11/01 10:40:19;;;;;;;2.35;0.50;;;;;;;;;;4252599;28;20054;-94
2023/11/01 10:42:24;;;;;;;2.95;0.90;;;;;;;;;;4248678;28;20065;-79
2023/11/01 10:44:27;;;;;;;2.63;0.73;;;;;;;;;;4242856;27;20083;-81
2023/11/01 10:46:29;;;;;;;3.10;0.95;;;;;;;;;;4237593;28;20419;-80
2023/11/01 10:48:31;;;;;;;3.17;1.02;;;;;;;;;;4234719;28;20051;-76
2023/11/01 10:50:34;;;;;;;3.47;0.90;;;;;;;;;;4243210;27;20055;-77
2023/11/01 10:52:37;;;;;;;1.92;0.55;;;;;;;;;;4241506;28;20557;-75
2023/11/01 10:54:44;;;;;;;2.35;0.75;;;;;;;;;;4243537;28;20051;-75
2023/11/01 10:56:48;;;;;;;2.05;0.73;;;;;;;;;;4242356;27;20049;-75
2023/11/01 10:58:51;;;;;;;2.40;0.80;;;;;;;;;;4241169;27;20134;-75
2023/11/01 11:00:58;;;;;;;2.15;0.70;;;;;;;;;;4229346;28;20429;-76
2023/11/01 11:03:05;;;;;;;3.35;0.88;;;;;;;;;;4223777;28;20052;-75
2023/11/01 11:05:13;;;;;;;2.13;0.70;;;;;;;;;;4231511;28;20120;-77
2023/11/01 11:07:22;;;;;;;2.75;0.70;;;;;;;;;;4229180;28;20067;-77
2023/11/01 11:09:27;;;;;;;2.22;0.80;;;;;;;;;;4231588;28;20548;-76
2023/11/01 11:11:31;;;;;;;2.13;0.68;;;;;;;;;;4231727;28;20124;-77
2023/11/01 11:13:32;;;;;;;3.42;0.90;;;;;;;;;;4231452;28;20101;-77
2023/11/01 11:15:56;;;;;;;2.90;0.90;;;;;;;;;;4231655;28;20066;-78
2023/11/01 11:18:07;;;;;;;3.40;0.90;;;;;;;;;;4230355;28;20051;-79
2023/11/01 11:20:14;;;;;;;2.38;0.70;;;;;;;;;;4231553;28;20051;-77
2023/11/01 11:22:16;;;;;;;3.35;0.75;;;;;;;;;;4231750;28;20479;-78
2023/11/01 11:24:47;;;;;;;3.78;1.13;;;;;;;;;;4230819;28;20122;-77
2023/11/01 11:26:51;;;;;;;13.82;6.28;;;;;;;;;;4231493;28;20039;-78
2023/11/01 11:28:53;;;;;;;7.35;2.80;;;;;;;;;;4229997;28;20117;-77
2023/11/01 11:31:00;;;;;;;4.03;0.95;;;;;;;;;;4229639;28;20043;-77
2023/11/01 11:33:09;;;;;;;4.22;0.80;;;;;;;;;;4231015;28;20417;-76
2023/11/01 11:35:22;;;;;;;3.10;1.00;;;;;;;;;;4229921;28;20040;-75
2023/11/01 11:37:29;;;;;;;3.42;0.90;;;;;;;;;;4230671;28;20043;-75
2023/11/01 11:40:07;;;;;;;1.80;0.73;;;;;;;;;;4228790;28;20060;-76
2023/11/01 11:42:49;;;;;;;3.85;0.90;;;;;;;;;;4212221;28;20046;-76
2023/11/01 11:45:01;;;;;;;2.28;0.80;;;;;;;;;;4224507;28;20115;-78
2023/11/01 11:47:28;;;;;;;2.33;0.90;;;;;;;;;;4231104;28;20059;-81
2023/11/01 11:49:33;;;;;;;2.65;0.80;;;;;;;;;;4214204;28;20058;-77
2023/11/01 16:33:37;;;;;;;2.38;0.77;;;;;;;;;;4246816;27;20366;-84
2023/11/01 16:35:39;;;;;;;4.15;1.00;;;;;;;;;;4246949;27;20673;-82
2023/11/01 16:37:41;;;;;;;2.40;0.75;;;;;;;;;;4247323;28;20069;-82
2023/11/01 16:39:43;;;;;;;2.72;0.82;;;;;;;;;;4246921;28;20404;-85
2023/11/01 16:41:46;;;;;;;1.88;0.60;;;;;;;;;;4244912;28;20191;-80
2023/11/01 16:43:48;;;;;;;4.00;0.80;;;;;;;;;;4244296;28;20126;-81
2023/11/01 16:45:50;;;;;;;3.08;1.08;;;;;;;;;;4246440;28;20043;-89
2023/11/01 16:47:53;;;;;;;2.50;0.73;;;;;;;;;;4233053;28;20055;-77
2023/11/01 16:49:57;;;;;;;3.35;0.98;;;;;;;;;;4231141;28;20108;-84
2023/11/01 16:51:59;;;;;;;3.17;0.95;;;;;;;;;;4244612;28;20512;-80
2023/11/01 16:54:01;;;;;;;2.15;0.88;;;;;;;;;;4246883;27;20047;-86
2023/11/01 16:56:04;;;;;;;6.55;1.40;;;;;;;;;;4247169;28;20047;-80
2023/11/01 16:58:06;;;;;;;4.65;0.90;;;;;;;;;;4247905;27;20092;-78
2023/11/01 17:00:09;;;;;;;5.13;1.10;;;;;;;;;;4245909;27;20043;-71
2023/11/01 17:02:11;;;;;;;3.28;0.90;;;;;;;;;;4240457;28;20043;-80
2023/11/01 17:04:13;;;;;;;3.53;1.25;;;;;;;;;;4228852;28;20051;-78
2023/11/01 17:06:17;;;;;;;5.82;1.20;;;;;;;;;;4230905;28;20134;-76
2023/11/01 17:08:20;;;;;;;2.63;0.80;;;;;;;;;;4245922;28;20104;-78
2023/11/01 17:10:22;;;;;;;1.75;0.70;;;;;;;;;;4245758;28;20047;-78
2023/11/01 17:12:25;;;;;;;3.33;0.95;;;;;;;;;;4240194;28;20177;-78
2023/11/01 17:14:27;;;;;;;2.30;0.80;;;;;;;;;;4241319;28;20093;-78
2023/11/01 17:16:29;;;;;;;2.92;0.90;;;;;;;;;;4245674;28;20077;-77
2023/11/01 17:18:31;;;;;;;2.15;0.70;;;;;;;;;;4241370;28;20472;-77
2023/11/01 17:20:34;;;;;;;3.60;0.80;;;;;;;;;;4209776;28;20048;-76
2023/11/01 17:23:00;;;;;;;2.70;0.90;;;;;;;;;;4218425;28;20115;-79
2023/11/01 17:25:02;;;;;;;1.83;0.70;;;;;;;;;;4230306;27;20053;-78
2023/11/01 17:27:04;;;;;;;4.93;1.10;;;;;;;;;;4241470;28;20540;-75
2023/11/01 17:29:07;;;;;;;3.75;1.10;;;;;;;;;;4243502;28;20076;-76
2023/11/01 17:31:14;;;;;;;2.65;0.80;;;;;;;;;;4243404;27;20047;-84
2023/11/01 17:33:15;;;;;;;2.30;0.90;;;;;;;;;;4233975;28;20131;-83
2023/11/01 17:35:17;;;;;;;2.17;0.75;;;;;;;;;;4243413;27;20370;-83
2023/11/01 17:37:20;;;;;;;1.98;0.65;;;;;;;;;;4236264;28;20111;-86
2023/11/01 17:39:23;;;;;;;4.20;1.00;;;;;;;;;;4224584;28;20051;-84
2023/11/01 17:42:00;;;;;;;3.63;1.00;;;;;;;;;;4222499;28;20048;-85
2023/11/01 17:44:02;;;;;;;2.90;0.77;;;;;;;;;;4212601;28;20075;-83
2023/11/01 17:46:05;;;;;;;3.92;0.60;;;;;;;;;;4230017;28;20533;-84
2023/11/01 17:48:08;;;;;;;1.98;0.63;;;;;;;;;;4214882;28;20055;-81
2023/11/01 17:50:10;;;;;;;2.28;0.85;;;;;;;;;;4231923;28;20047;-80
2023/11/01 17:52:14;;;;;;;2.00;0.70;;;;;;;;;;4231955;28;20377;-80
2023/11/01 17:54:17;;;;;;;2.72;0.98;;;;;;;;;;4231906;28;20044;-78
2023/11/01 17:56:21;;;;;;;3.70;1.52;;;;;;;;;;4231743;28;20047;-80
2023/11/01 17:58:23;;;;;;;3.55;1.40;;;;;;;;;;4225868;28;20116;-81
2023/11/01 18:00:27;;;;;;;4.93;2.08;;;;;;;;;;4231756;28;20109;-80
2023/11/01 18:03:24;;;;;;;4.60;2.47;;;;;;;;;;4231761;28;20672;-80
2023/11/01 18:05:33;;;;;;;3.75;1.60;;;;;;;;;;4232053;28;20384;-81
2023/11/01 18:07:35;;;;;;;3.20;0.93;;;;;;;;;;4226428;28;20051;-80
2023/11/01 18:09:37;;;;;;;2.50;0.75;;;;;;;;;;4231524;28;20112;-80
2023/11/01 18:11:41;;;;;;;2.92;0.95;;;;;;;;;;4231451;28;20051;-82
2023/11/01 18:13:44;;;;;;;2.40;0.80;;;;;;;;;;4231524;28;20048;-82
2023/11/01 18:15:46;;;;;;;2.97;1.00;;;;;;;;;;4226952;28;20615;-81
2023/11/01 18:17:48;;;;;;;3.75;0.95;;;;;;;;;;4221593;28;20048;-75
2023/11/01 18:19:51;;;;;;;2.83;0.98;;;;;;;;;;4204106;28;20087;-81
2023/11/01 18:21:53;;;;;;;2.00;0.82;;;;;;;;;;4213017;28;20059;-78
2023/11/01 18:23:57;;;;;;;2.70;0.80;;;;;;;;;;4213914;28;20516;-78
2023/11/01 18:26:19;;;;;;;3.08;0.80;;;;;;;;;;4207974;28;20121;-75
2023/11/01 18:28:22;;;;;;;2.72;0.60;;;;;;;;;;4210404;28;20048;-76
2023/11/01 18:30:24;;;;;;;2.65;0.80;;;;;;;;;;4212162;28;20094;-77
2023/11/01 18:32:27;;;;;;;2.42;0.80;;;;;;;;;;4212040;28;20068;-76
2023/11/01 18:34:29;;;;;;;2.50;0.80;;;;;;;;;;4212425;28;20510;-75
2023/11/01 18:36:35;;;;;;;2.00;0.70;;;;;;;;;;4212374;28;20048;-76
2023/11/01 18:38:48;;;;;;;2.10;0.88;;;;;;;;;;4226817;28;20399;-77
2023/11/01 18:40:51;;;;;;;2.38;0.88;;;;;;;;;;4229334;28;20052;-77
2023/11/01 18:42:57;;;;;;;2.50;0.88;;;;;;;;;;4228203;28;20474;-78
2023/11/01 18:45:00;;;;;;;2.60;0.95;;;;;;;;;;4229233;28;20134;-79
2023/11/01 18:47:05;;;;;;;2.85;1.02;;;;;;;;;;4225224;28;20055;-79
2023/11/01 18:49:07;;;;;;;2.20;0.80;;;;;;;;;;4212379;28;20052;-81
2023/11/01 18:51:13;;;;;;;2.35;0.80;;;;;;;;;;4212616;28;20059;-82
2023/11/01 18:53:18;;;;;;;2.28;0.90;;;;;;;;;;4212698;28;20052;-83
2023/11/01 18:55:29;;;;;;;3.45;1.05;;;;;;;;;;4212095;28;20120;-84
2023/11/01 18:57:36;;;;;;;3.53;0.98;;;;;;;;;;4208642;28;20759;-82
2023/11/01 18:59:38;;;;;;;2.50;0.95;;;;;;;;;;4211917;28;20470;-80
2023/11/01 19:01:42;;;;;;;3.88;1.00;;;;;;;;;;4220495;28;20807;-82
2023/11/01 19:03:44;;;;;;;2.90;1.00;;;;;;;;;;4228669;28;20458;-82
2023/11/01 19:05:46;;;;;;;2.30;0.90;;;;;;;;;;4228689;28;20048;-83
2023/11/01 19:07:50;;;;;;;4.55;1.08;;;;;;;;;;4220098;28;20073;-82
2023/11/01 19:09:52;;;;;;;2.70;0.82;;;;;;;;;;4211932;28;20048;-85
2023/11/01 19:11:55;;;;;;;3.70;0.80;;;;;;;;;;4201701;28;20052;-81
2023/11/01 19:13:57;;;;;;;2.42;1.00;;;;;;;;;;4206386;28;20138;-79
2023/11/01 19:16:15;;;;;;;2.53;1.00;;;;;;;;;;4195752;28;20045;-78
2023/11/01 19:18:19;;;;;;;2.78;0.90;;;;;;;;;;4207476;28;20108;-78
2023/11/01 19:20:21;;;;;;;3.40;1.00;;;;;;;;;;4213501;28;20083;-78
2023/11/01 19:22:23;;;;;;;3.03;1.02;;;;;;;;;;4211656;28;20044;-81
2023/11/01 19:24:26;;;;;;;2.60;0.90;;;;;;;;;;4213904;28;20101;-79
2023/11/01 19:26:28;;;;;;;2.05;0.85;;;;;;;;;;4228259;28;20048;-79
2023/11/01 19:28:29;;;;;;;2.38;0.90;;;;;;;;;;4228418;28;20047;-80
2023/11/01 19:30:32;;;;;;;3.20;1.10;;;;;;;;;;4213654;28;20048;-79
2023/11/01 19:32:34;;;;;;;1.73;0.90;;;;;;;;;;4201244;28;20114;-80
2023/11/01 19:34:38;;;;;;;2.80;0.90;;;;;;;;;;4204583;28;20060;-79
2023/11/01 19:36:41;;;;;;;2.13;0.68;;;;;;;;;;4208155;28;20055;-78
2023/11/01 19:38:42;;;;;;;3.97;0.93;;;;;;;;;;4222155;28;20089;-76
2023/11/01 19:40:45;;;;;;;1.98;0.60;;;;;;;;;;4228205;28;20144;-79
2023/11/01 19:42:47;;;;;;;1.73;0.77;;;;;;;;;;4227688;28;20055;-79
2023/11/01 19:44:49;;;;;;;2.28;0.50;;;;;;;;;;4228243;28;20051;-79
2023/11/01 19:46:52;;;;;;;2.55;0.70;;;;;;;;;;4224678;28;20124;-81
2023/11/01 19:48:53;;;;;;;1.65;0.60;;;;;;;;;;4228265;28;20059;-80
2023/11/01 19:50:58;;;;;;;2.80;0.70;;;;;;;;;;4227835;28;20051;-81
2023/11/01 19:53:01;;;;;;;2.28;0.90;;;;;;;;;;4225380;28;20291;-81
2023/11/01 19:55:04;;;;;;;1.75;0.70;;;;;;;;;;4227796;28;20779;-82
2023/11/01 19:57:08;;;;;;;1.27;0.50;;;;;;;;;;4220551;28;20482;-82
2023/11/01 19:59:11;;;;;;;1.63;0.60;;;;;;;;;;4224520;28;20451;-82
2023/11/01 20:01:14;;;;;;;2.15;0.73;;;;;;;;;;4228222;28;20075;-85
2023/11/01 20:03:15;;;;;;;1.58;0.50;;;;;;;;;;4228044;28;20051;-82
2023/11/01 20:05:18;;;;;;;3.65;1.13;;;;;;;;;;4223166;28;20094;-80
2023/11/01 20:07:21;;;;;;;2.15;0.80;;;;;;;;;;4225183;28;20047;-79
2023/11/01 20:09:23;;;;;;;2.10;0.88;;;;;;;;;;4227751;28;20052;-79
2023/11/01 20:11:26;;;;;;;2.58;0.68;;;;;;;;;;4227964;28;20047;-80
2023/11/01 20:13:28;;;;;;;1.67;0.60;;;;;;;;;;4227681;28;20055;-80
2023/11/01 20:15:30;;;;;;;2.13;0.80;;;;;;;;;;4227793;28;20086;-82
2023/11/01 20:17:32;;;;;;;2.03;0.75;;;;;;;;;;4215990;28;20052;-82
2023/11/01 20:19:34;;;;;;;2.15;0.77;;;;;;;;;;4212102;28;20098;-84
2023/11/01 20:21:37;;;;;;;2.20;0.73;;;;;;;;;;4212102;28;20048;-83
2023/11/01 20:23:40;;;;;;;1.52;0.70;;;;;;;;;;4213628;28;20477;-86
2023/11/01 20:25:43;;;;;;;2.33;0.75;;;;;;;;;;4214150;28;20066;-88
2023/11/01 20:27:48;;;;;;;3.22;0.63;;;;;;;;;;4229083;28;20105;-83
2023/11/01 20:29:50;;;;;;;2.50;0.80;;;;;;;;;;4227463;28;20051;-85
2023/11/01 20:31:52;;;;;;;3.30;0.70;;;;;;;;;;4226876;28;21171;-82
2023/11/01 20:33:54;;;;;;;1.75;0.70;;;;;;;;;;4226089;28;20112;-86
2023/11/01 20:35:57;;;;;;;2.03;0.75;;;;;;;;;;4211081;28;20116;-83
2023/11/01 20:38:00;;;;;;;1.80;0.70;;;;;;;;;;4227473;28;20054;-85
2023/11/01 20:40:04;;;;;;;2.72;0.85;;;;;;;;;;4226399;28;20078;-84
2023/11/01 20:42:06;;;;;;;3.28;0.80;;;;;;;;;;4227830;28;20447;-82
2023/11/01 20:44:09;;;;;;;2.15;0.82;;;;;;;;;;4223039;28;20165;-85
2023/11/01 20:46:12;;;;;;;3.63;0.77;;;;;;;;;;4211227;28;20120;-84
2023/11/01 20:48:13;;;;;;;2.83;0.90;;;;;;;;;;4226039;28;20549;-79
2023/11/01 20:50:15;;;;;;;2.60;0.70;;;;;;;;;;4211367;28;20040;-72
2023/11/01 20:52:17;;;;;;;2.70;0.88;;;;;;;;;;4211621;28;20101;-71
2023/11/01 20:54:20;;;;;;;2.28;0.70;;;;;;;;;;4205547;28;20482;-72
2023/11/01 20:56:23;;;;;;;3.55;0.68;;;;;;;;;;4203271;28;20040;-71
2023/11/01 20:58:27;;;;;;;1.73;0.50;;;;;;;;;;4229076;28;20051;-71
2023/11/01 21:00:28;;;;;;;2.55;0.60;;;;;;;;;;4221102;28;20131;-67
2023/11/01 21:02:31;;;;;;;3.45;0.80;;;;;;;;;;4195781;28;20055;-71
2023/11/01 21:04:32;;;;;;;2.60;0.70;;;;;;;;;;4195577;28;20435;-70
2023/11/01 21:06:35;;;;;;;2.10;0.73;;;;;;;;;;4206029;28;20097;-70
2023/11/01 21:08:38;;;;;;;2.15;0.50;;;;;;;;;;4228864;28;20079;-70
2023/11/01 21:10:40;;;;;;;1.77;0.60;;;;;;;;;;4229081;28;20047;-67
2023/11/01 21:12:43;;;;;;;3.30;0.55;;;;;;;;;;4229136;28;20089;-71
2023/11/01 21:14:46;;;;;;;2.65;0.80;;;;;;;;;;4229156;28;20556;-71
2023/11/01 21:16:47;;;;;;;1.60;0.70;;;;;;;;;;4213829;28;20048;-63
2023/11/01 21:18:49;;;;;;;3.40;0.60;;;;;;;;;;4200837;28;20056;-63
2023/11/01 21:20:51;;;;;;;2.25;0.60;;;;;;;;;;4212916;28;20094;-63
2023/11/01 21:22:55;;;;;;;0.90;0.47;;;;;;;;;;4225517;28;20594;-62
2023/11/01 21:24:57;;;;;;;4.78;0.88;;;;;;;;;;4231869;28;20048;-62
2023/11/01 21:26:58;;;;;;;2.13;0.63;;;;;;;;;;4230688;28;20047;-62
2023/11/01 21:29:01;;;;;;;1.55;0.60;;;;;;;;;;4216241;28;20048;-63
2023/11/01 21:31:08;;;;;;;1.75;0.50;;;;;;;;;;4217859;28;20101;-63
2023/11/01 21:33:10;;;;;;;2.55;0.60;;;;;;;;;;4203404;28;20485;-63
2023/11/01 21:35:12;;;;;;;3.08;0.63;;;;;;;;;;4197559;28;20405;-63
2023/11/01 21:37:14;;;;;;;2.13;0.57;;;;;;;;;;4208825;28;20048;-63
2023/11/01 21:39:17;;;;;;;1.70;0.60;;;;;;;;;;4213142;28;20477;-62
2023/11/01 21:41:18;;;;;;;1.98;0.40;;;;;;;;;;4214986;28;20487;-63
2023/11/01 21:43:21;;;;;;;1.80;0.60;;;;;;;;;;4214375;28;20048;-63
2023/11/01 21:45:38;;;;;;;2.20;0.70;;;;;;;;;;4214194;28;20078;-62
2023/11/01 21:47:40;;;;;;;3.33;0.65;;;;;;;;;;4227815;28;20044;-64
2023/11/01 21:49:42;;;;;;;1.70;0.50;;;;;;;;;;4216444;28;20044;-64
2023/11/01 21:51:44;;;;;;;3.05;0.68;;;;;;;;;;4215776;28;20094;-63
2023/11/01 21:53:47;;;;;;;1.50;0.50;;;;;;;;;;4215414;28;20070;-62
2023/11/01 21:55:53;;;;;;;1.58;0.50;;;;;;;;;;4216082;28;20094;-63
2023/11/01 21:57:55;;;;;;;2.10;0.40;;;;;;;;;;4216566;28;20435;-66
2023/11/01 22:00:00;;;;;;;1.35;0.35;;;;;;;;;;4215846;28;20542;-63
2023/11/01 22:02:06;;;;;;;1.40;0.50;;;;;;;;;;4216715;28;20040;-62
2023/11/01 22:04:16;;;;;;;1.15;0.40;;;;;;;;;;4216675;28;20048;-63
2023/11/01 22:06:20;;;;;;;1.27;0.50;;;;;;;;;;4216681;28;20443;-64
2023/11/01 22:08:42;;;;;;;1.65;0.50;;;;;;;;;;4215861;28;20075;-62
2023/11/01 22:10:44;;;;;;;2.22;0.50;;;;;;;;;;4216319;28;20048;-63
2023/11/01 22:12:48;;;;;;;1.65;0.40;;;;;;;;;;4216475;28;20588;-63
2023/11/01 22:14:51;;;;;;;1.23;0.40;;;;;;;;;;4216134;28;20052;-63
2023/11/01 22:16:53;;;;;;;2.15;0.52;;;;;;;;;;4223941;28;20044;-63
2023/11/01 22:19:01;;;;;;;1.80;0.50;;;;;;;;;;4232127;28;20100;-63
2023/11/01 22:21:03;;;;;;;2.35;0.43;;;;;;;;;;4233150;28;20480;-62
2023/11/01 22:23:06;;;;;;;1.50;0.40;;;;;;;;;;4233097;28;20043;-63
2023/11/01 22:25:08;;;;;;;1.55;0.50;;;;;;;;;;4233280;28;20073;-62
2023/11/01 22:27:12;;;;;;;1.77;0.50;;;;;;;;;;4233188;28;20105;-64
2023/11/01 22:29:28;;;;;;;1.50;0.40;;;;;;;;;;4222928;28;20055;-64
